sensor_id;sensor_type;location;lat;lon;timestamp;P1;durP1;ratioP1;P2;durP2;ratioP2
4420;SDS011;11824;51.178;13.546;2023-11-19T00:00:32;14.83;;;8.37;;
4420;SDS011;11824;51.178;13.546;2023-11-19T00:03:02;12.07;;;6.80;;
4420;SDS011;11824;51.178;13.546;2023-11-19T00:05:32;11.03;;;8.17;;
4420;SDS011;11824;51.178;13.546;2023-11-19T00:08:00;17.50;;;8.90;;
4420;SDS011;11824;51.178;13.546;2023-11-19T00:10:29;12.13;;;8.53;;
4420;SDS011;11824;51.178;13.546;2023-11-19T00:12:58;14.17;;;8.67;;
4420;SDS011;11824;51.178;13.546;2023-11-19T00:15:27;13.30;;;9.13;;
4420;SDS011;11824;51.178;13.546;2023-11-19T00:17:56;14.70;;;9.10;;
4420;SDS011;11824;51.178;13.546;2023-11-19T00:20:28;13.30;;;8.03;;
4420;SDS011;11824;51.178;13.546;2023-11-19T00:22:57;11.83;;;7.97;;
4420;SDS011;11824;51.178;13.546;2023-11-19T00:25:28;12.70;;;8.80;;
4420;SDS011;11824;51.178;13.546;2023-11-19T00:27:57;9.80;;;7.50;;
4420;SDS011;11824;51.178;13.546;2023-11-19T00:30:26;14.27;;;8.97;;
4420;SDS011;11824;51.178;13.546;2023-11-19T00:32:55;13.40;;;9.07;;
4420;SDS011;11824;51.178;13.546;2023-11-19T00:35:23;16.17;;;10.27;;
4420;SDS011;11824;51.178;13.546;2023-11-19T00:37:54;13.97;;;9.60;;
4420;SDS011;11824;51.178;13.546;2023-11-19T00:40:24;17.80;;;9.63;;
4420;SDS011;11824;51.178;13.546;2023-11-19T00:42:53;15.37;;;9.33;;
4420;SDS011;11824;51.178;13.546;2023-11-19T00:45:24;11.80;;;8.53;;
4420;SDS011;11824;51.178;13.546;2023-11-19T00:47:53;17.00;;;10.10;;
4420;SDS011;11824;51.178;13.546;2023-11-19T00:50:22;14.33;;;9.00;;
4420;SDS011;11824;51.178;13.546;2023-11-19T00:52:51;19.97;;;10.23;;
4420;SDS011;11824;51.178;13.546;2023-11-19T00:55:21;18.20;;;10.33;;
4420;SDS011;11824;51.178;13.546;2023-11-19T00:57:50;16.47;;;10.63;;
4420;SDS011;11824;51.178;13.546;2023-11-19T01:00:19;13.10;;;9.57;;
4420;SDS011;11824;51.178;13.546;2023-11-19T01:02:50;14.67;;;9.27;;
4420;SDS011;11824;51.178;13.546;2023-11-19T01:05:19;17.70;;;9.67;;
4420;SDS011;11824;51.178;13.546;2023-11-19T01:07:49;21.73;;;10.10;;
4420;SDS011;11824;51.178;13.546;2023-11-19T01:10:22;17.67;;;9.83;;
4420;SDS011;11824;51.178;13.546;2023-11-19T01:12:52;16.90;;;10.30;;
4420;SDS011;11824;51.178;13.546;2023-11-19T01:15:21;16.23;;;10.47;;
4420;SDS011;11824;51.178;13.546;2023-11-19T01:17:50;12.90;;;9.67;;
4420;SDS011;11824;51.178;13.546;2023-11-19T01:20:19;14.93;;;10.00;;
4420;SDS011;11824;51.178;13.546;2023-11-19T01:22:48;14.60;;;9.50;;
4420;SDS011;11824;51.178;13.546;2023-11-19T01:25:17;18.07;;;10.20;;
4420;SDS011;11824;51.178;13.546;2023-11-19T01:27:48;23.93;;;10.27;;
4420;SDS011;11824;51.178;13.546;2023-11-19T01:30:17;13.07;;;9.43;;
4420;SDS011;11824;51.178;13.546;2023-11-19T01:32:46;21.30;;;10.60;;
4420;SDS011;11824;51.178;13.546;2023-11-19T01:35:15;14.43;;;9.00;;
4420;SDS011;11824;51.178;13.546;2023-11-19T01:37:44;14.83;;;10.07;;
4420;SDS011;11824;51.178;13.546;2023-11-19T01:40:12;14.37;;;9.90;;
4420;SDS011;11824;51.178;13.546;2023-11-19T01:42:42;13.93;;;9.50;;
4420;SDS011;11824;51.178;13.546;2023-11-19T01:45:16;13.57;;;8.53;;
4420;SDS011;11824;51.178;13.546;2023-11-19T01:47:52;14.90;;;8.83;;
4420;SDS011;11824;51.178;13.546;2023-11-19T01:50:21;15.37;;;9.27;;
4420;SDS011;11824;51.178;13.546;2023-11-19T01:52:51;14.57;;;9.67;;
4420;SDS011;11824;51.178;13.546;2023-11-19T01:55:21;9.13;;;7.57;;
4420;SDS011;11824;51.178;13.546;2023-11-19T01:57:51;13.40;;;7.93;;
4420;SDS011;11824;51.178;13.546;2023-11-19T02:00:23;11.27;;;8.40;;
4420;SDS011;11824;51.178;13.546;2023-11-19T02:02:53;11.20;;;7.77;;
4420;SDS011;11824;51.178;13.546;2023-11-19T02:05:22;17.07;;;9.70;;
4420;SDS011;11824;51.178;13.546;2023-11-19T02:07:51;14.10;;;8.97;;
4420;SDS011;11824;51.178;13.546;2023-11-19T02:10:20;12.57;;;8.00;;
4420;SDS011;11824;51.178;13.546;2023-11-19T02:12:51;11.80;;;7.73;;
4420;SDS011;11824;51.178;13.546;2023-11-19T02:15:33;9.90;;;6.60;;
4420;SDS011;11824;51.178;13.546;2023-11-19T02:18:18;10.00;;;7.37;;
4420;SDS011;11824;51.178;13.546;2023-11-19T02:20:48;12.50;;;7.70;;
4420;SDS011;11824;51.178;13.546;2023-11-19T02:23:18;13.23;;;7.07;;
4420;SDS011;11824;51.178;13.546;2023-11-19T02:25:47;7.97;;;6.20;;
4420;SDS011;11824;51.178;13.546;2023-11-19T02:28:33;8.83;;;6.33;;
4420;SDS011;11824;51.178;13.546;2023-11-19T02:31:04;9.13;;;7.17;;
4420;SDS011;11824;51.178;13.546;2023-11-19T02:33:36;8.63;;;5.63;;
4420;SDS011;11824;51.178;13.546;2023-11-19T02:36:06;9.80;;;7.00;;
4420;SDS011;11824;51.178;13.546;2023-11-19T02:38:35;7.83;;;5.67;;
4420;SDS011;11824;51.178;13.546;2023-11-19T02:41:04;7.10;;;5.53;;
4420;SDS011;11824;51.178;13.546;2023-11-19T02:43:36;7.83;;;6.53;;
4420;SDS011;11824;51.178;13.546;2023-11-19T02:46:05;6.87;;;5.07;;
4420;SDS011;11824;51.178;13.546;2023-11-19T02:48:37;7.57;;;5.33;;
4420;SDS011;11824;51.178;13.546;2023-11-19T02:51:06;8.23;;;5.10;;
4420;SDS011;11824;51.178;13.546;2023-11-19T02:53:37;7.13;;;5.20;;
4420;SDS011;11824;51.178;13.546;2023-11-19T02:56:07;6.80;;;4.93;;
4420;SDS011;11824;51.178;13.546;2023-11-19T02:58:47;5.40;;;4.10;;
4420;SDS011;11824;51.178;13.546;2023-11-19T03:01:21;7.20;;;4.87;;
4420;SDS011;11824;51.178;13.546;2023-11-19T03:03:57;8.43;;;4.80;;
4420;SDS011;11824;51.178;13.546;2023-11-19T03:06:28;6.43;;;4.47;;
4420;SDS011;11824;51.178;13.546;2023-11-19T03:08:58;6.27;;;4.30;;
4420;SDS011;11824;51.178;13.546;2023-11-19T03:11:32;6.77;;;4.47;;
4420;SDS011;11824;51.178;13.546;2023-11-19T03:14:02;4.93;;;4.20;;
4420;SDS011;11824;51.178;13.546;2023-11-19T03:16:31;5.63;;;4.37;;
4420;SDS011;11824;51.178;13.546;2023-11-19T03:19:00;6.90;;;4.53;;
4420;SDS011;11824;51.178;13.546;2023-11-19T03:21:31;7.30;;;4.43;;
4420;SDS011;11824;51.178;13.546;2023-11-19T03:24:00;6.17;;;4.23;;
4420;SDS011;11824;51.178;13.546;2023-11-19T03:26:29;4.83;;;4.33;;
4420;SDS011;11824;51.178;13.546;2023-11-19T03:29:00;4.50;;;4.10;;
4420;SDS011;11824;51.178;13.546;2023-11-19T03:31:30;7.40;;;4.47;;
4420;SDS011;11824;51.178;13.546;2023-11-19T03:33:59;4.80;;;4.20;;
4420;SDS011;11824;51.178;13.546;2023-11-19T03:36:31;4.93;;;4.27;;
4420;SDS011;11824;51.178;13.546;2023-11-19T03:39:00;6.93;;;4.10;;
4420;SDS011;11824;51.178;13.546;2023-11-19T03:41:30;4.07;;;3.67;;
4420;SDS011;11824;51.178;13.546;2023-11-19T03:44:03;5.60;;;3.67;;
4420;SDS011;11824;51.178;13.546;2023-11-19T03:46:32;7.47;;;3.73;;
4420;SDS011;11824;51.178;13.546;2023-11-19T03:49:01;13.37;;;9.70;;
4420;SDS011;11824;51.178;13.546;2023-11-19T03:51:31;3.77;;;3.47;;
4420;SDS011;11824;51.178;13.546;2023-11-19T03:56:29;4.23;;;3.87;;
4420;SDS011;11824;51.178;13.546;2023-11-19T03:58:59;3.40;;;3.10;;
4420;SDS011;11824;51.178;13.546;2023-11-19T04:01:29;4.97;;;3.50;;
4420;SDS011;11824;51.178;13.546;2023-11-19T04:03:58;3.50;;;3.30;;
4420;SDS011;11824;51.178;13.546;2023-11-19T04:06:28;3.80;;;3.10;;
4420;SDS011;11824;51.178;13.546;2023-11-19T04:08:57;4.17;;;2.93;;
4420;SDS011;11824;51.178;13.546;2023-11-19T04:11:26;4.67;;;3.50;;
4420;SDS011;11824;51.178;13.546;2023-11-19T04:13:55;3.70;;;3.37;;
4420;SDS011;11824;51.178;13.546;2023-11-19T04:16:27;3.67;;;3.13;;
4420;SDS011;11824;51.178;13.546;2023-11-19T04:18:58;3.73;;;3.30;;
4420;SDS011;11824;51.178;13.546;2023-11-19T04:21:27;3.70;;;3.40;;
4420;SDS011;11824;51.178;13.546;2023-11-19T04:23:57;3.80;;;3.33;;
4420;SDS011;11824;51.178;13.546;2023-11-19T04:26:25;3.50;;;3.20;;
4420;SDS011;11824;51.178;13.546;2023-11-19T04:28:54;3.60;;;3.10;;
4420;SDS011;11824;51.178;13.546;2023-11-19T04:31:23;5.07;;;3.07;;
4420;SDS011;11824;51.178;13.546;2023-11-19T04:33:59;3.20;;;2.90;;
4420;SDS011;11824;51.178;13.546;2023-11-19T04:36:28;4.23;;;3.83;;
4420;SDS011;11824;51.178;13.546;2023-11-19T04:38:57;3.90;;;3.30;;
4420;SDS011;11824;51.178;13.546;2023-11-19T04:41:25;3.90;;;2.80;;
4420;SDS011;11824;51.178;13.546;2023-11-19T04:43:54;3.43;;;3.13;;
4420;SDS011;11824;51.178;13.546;2023-11-19T04:46:23;3.90;;;3.33;;
4420;SDS011;11824;51.178;13.546;2023-11-19T04:48:54;3.47;;;2.80;;
4420;SDS011;11824;51.178;13.546;2023-11-19T04:51:22;4.20;;;3.00;;
4420;SDS011;11824;51.178;13.546;2023-11-19T04:53:52;3.57;;;3.27;;
4420;SDS011;11824;51.178;13.546;2023-11-19T04:56:20;5.93;;;3.67;;
4420;SDS011;11824;51.178;13.546;2023-11-19T04:58:50;3.93;;;3.53;;
4420;SDS011;11824;51.178;13.546;2023-11-19T05:01:19;4.33;;;3.70;;
4420;SDS011;11824;51.178;13.546;2023-11-19T05:03:48;5.03;;;3.40;;
4420;SDS011;11824;51.178;13.546;2023-11-19T05:06:19;4.70;;;3.70;;
4420;SDS011;11824;51.178;13.546;2023-11-19T05:08:48;3.33;;;2.90;;
4420;SDS011;11824;51.178;13.546;2023-11-19T05:11:16;3.80;;;3.00;;
4420;SDS011;11824;51.178;13.546;2023-11-19T05:13:46;3.77;;;3.47;;
4420;SDS011;11824;51.178;13.546;2023-11-19T05:16:15;5.50;;;4.53;;
4420;SDS011;11824;51.178;13.546;2023-11-19T05:18:44;3.93;;;3.40;;
4420;SDS011;11824;51.178;13.546;2023-11-19T05:21:12;4.00;;;3.60;;
4420;SDS011;11824;51.178;13.546;2023-11-19T05:23:43;5.67;;;3.50;;
4420;SDS011;11824;51.178;13.546;2023-11-19T05:26:17;6.50;;;4.17;;
4420;SDS011;11824;51.178;13.546;2023-11-19T05:28:46;7.30;;;4.23;;
4420;SDS011;11824;51.178;13.546;2023-11-19T05:31:16;4.00;;;3.50;;
4420;SDS011;11824;51.178;13.546;2023-11-19T05:33:45;3.93;;;3.33;;
4420;SDS011;11824;51.178;13.546;2023-11-19T05:36:14;4.73;;;4.27;;
4420;SDS011;11824;51.178;13.546;2023-11-19T05:38:44;5.43;;;4.10;;
4420;SDS011;11824;51.178;13.546;2023-11-19T05:41:13;3.83;;;3.40;;
4420;SDS011;11824;51.178;13.546;2023-11-19T05:43:42;4.47;;;4.07;;
4420;SDS011;11824;51.178;13.546;2023-11-19T05:46:11;4.07;;;3.67;;
4420;SDS011;11824;51.178;13.546;2023-11-19T05:48:42;7.10;;;4.90;;
4420;SDS011;11824;51.178;13.546;2023-11-19T05:51:13;9.03;;;3.93;;
4420;SDS011;11824;51.178;13.546;2023-11-19T05:53:42;5.87;;;3.40;;
4420;SDS011;11824;51.178;13.546;2023-11-19T05:56:13;4.40;;;3.77;;
4420;SDS011;11824;51.178;13.546;2023-11-19T05:58:42;4.20;;;3.50;;
4420;SDS011;11824;51.178;13.546;2023-11-19T06:01:11;4.73;;;3.63;;
4420;SDS011;11824;51.178;13.546;2023-11-19T06:03:40;7.87;;;4.10;;
4420;SDS011;11824;51.178;13.546;2023-11-19T06:06:09;6.17;;;5.57;;
4420;SDS011;11824;51.178;13.546;2023-11-19T06:08:38;6.60;;;4.10;;
4420;SDS011;11824;51.178;13.546;2023-11-19T06:11:09;4.30;;;3.47;;
4420;SDS011;11824;51.178;13.546;2023-11-19T06:13:41;4.70;;;3.87;;
4420;SDS011;11824;51.178;13.546;2023-11-19T06:16:10;6.10;;;3.87;;
4420;SDS011;11824;51.178;13.546;2023-11-19T06:18:39;5.63;;;3.90;;
4420;SDS011;11824;51.178;13.546;2023-11-19T06:21:10;4.93;;;4.07;;
4420;SDS011;11824;51.178;13.546;2023-11-19T06:23:39;6.07;;;4.90;;
4420;SDS011;11824;51.178;13.546;2023-11-19T06:26:10;5.50;;;4.20;;
4420;SDS011;11824;51.178;13.546;2023-11-19T06:28:38;6.57;;;4.40;;
4420;SDS011;11824;51.178;13.546;2023-11-19T06:31:07;5.70;;;4.70;;
4420;SDS011;11824;51.178;13.546;2023-11-19T06:33:36;6.07;;;4.40;;
4420;SDS011;11824;51.178;13.546;2023-11-19T06:36:05;4.73;;;4.20;;
4420;SDS011;11824;51.178;13.546;2023-11-19T06:38:35;3.93;;;3.37;;
4420;SDS011;11824;51.178;13.546;2023-11-19T06:41:06;9.57;;;4.20;;
4420;SDS011;11824;51.178;13.546;2023-11-19T06:43:37;4.20;;;3.80;;
4420;SDS011;11824;51.178;13.546;2023-11-19T06:46:14;11.43;;;4.60;;
4420;SDS011;11824;51.178;13.546;2023-11-19T06:48:43;7.67;;;6.03;;
4420;SDS011;11824;51.178;13.546;2023-11-19T06:51:12;4.23;;;3.87;;
4420;SDS011;11824;51.178;13.546;2023-11-19T06:53:42;6.03;;;5.10;;
4420;SDS011;11824;51.178;13.546;2023-11-19T06:56:19;8.00;;;5.87;;
4420;SDS011;11824;51.178;13.546;2023-11-19T06:58:50;5.00;;;4.20;;
4420;SDS011;11824;51.178;13.546;2023-11-19T07:01:19;4.53;;;4.13;;
4420;SDS011;11824;51.178;13.546;2023-11-19T07:03:48;4.40;;;3.97;;
4420;SDS011;11824;51.178;13.546;2023-11-19T07:06:17;8.80;;;5.33;;
4420;SDS011;11824;51.178;13.546;2023-11-19T07:09:00;5.63;;;4.07;;
4420;SDS011;11824;51.178;13.546;2023-11-19T07:11:35;6.03;;;4.70;;
4420;SDS011;11824;51.178;13.546;2023-11-19T07:14:07;9.80;;;6.67;;
4420;SDS011;11824;51.178;13.546;2023-11-19T07:16:36;6.23;;;5.40;;
4420;SDS011;11824;51.178;13.546;2023-11-19T07:19:05;6.03;;;4.73;;
4420;SDS011;11824;51.178;13.546;2023-11-19T07:21:34;6.37;;;4.90;;
4420;SDS011;11824;51.178;13.546;2023-11-19T07:24:06;7.03;;;4.97;;
4420;SDS011;11824;51.178;13.546;2023-11-19T07:26:35;8.63;;;5.63;;
4420;SDS011;11824;51.178;13.546;2023-11-19T07:29:04;6.10;;;4.37;;
4420;SDS011;11824;51.178;13.546;2023-11-19T07:31:35;7.37;;;4.83;;
4420;SDS011;11824;51.178;13.546;2023-11-19T07:34:03;4.10;;;3.70;;
4420;SDS011;11824;51.178;13.546;2023-11-19T07:36:33;6.47;;;5.17;;
4420;SDS011;11824;51.178;13.546;2023-11-19T07:39:02;6.50;;;4.87;;
4420;SDS011;11824;51.178;13.546;2023-11-19T07:41:32;4.20;;;3.30;;
4420;SDS011;11824;51.178;13.546;2023-11-19T07:44:00;5.63;;;3.13;;
4420;SDS011;11824;51.178;13.546;2023-11-19T07:46:31;3.10;;;2.77;;
4420;SDS011;11824;51.178;13.546;2023-11-19T07:48:59;2.57;;;2.37;;
4420;SDS011;11824;51.178;13.546;2023-11-19T07:51:29;2.27;;;2.10;;
4420;SDS011;11824;51.178;13.546;2023-11-19T07:53:58;3.03;;;2.17;;
4420;SDS011;11824;51.178;13.546;2023-11-19T07:56:26;4.80;;;2.30;;
4420;SDS011;11824;51.178;13.546;2023-11-19T07:58:55;1.97;;;1.70;;
4420;SDS011;11824;51.178;13.546;2023-11-19T08:01:24;2.50;;;2.30;;
4420;SDS011;11824;51.178;13.546;2023-11-19T08:03:54;2.60;;;2.07;;
4420;SDS011;11824;51.178;13.546;2023-11-19T08:06:26;3.93;;;2.60;;
4420;SDS011;11824;51.178;13.546;2023-11-19T08:08:55;2.50;;;1.70;;
4420;SDS011;11824;51.178;13.546;2023-11-19T08:11:24;0.93;;;0.93;;
4420;SDS011;11824;51.178;13.546;2023-11-19T08:13:53;2.20;;;0.90;;
4420;SDS011;11824;51.178;13.546;2023-11-19T08:16:22;0.80;;;0.80;;
4420;SDS011;11824;51.178;13.546;2023-11-19T08:18:50;2.10;;;2.00;;
4420;SDS011;11824;51.178;13.546;2023-11-19T08:21:21;2.00;;;1.30;;
4420;SDS011;11824;51.178;13.546;2023-11-19T08:23:50;1.60;;;1.50;;
4420;SDS011;11824;51.178;13.546;2023-11-19T08:26:19;1.90;;;1.63;;
4420;SDS011;11824;51.178;13.546;2023-11-19T08:28:47;5.83;;;4.97;;
4420;SDS011;11824;51.178;13.546;2023-11-19T08:31:18;2.60;;;2.40;;
4420;SDS011;11824;51.178;13.546;2023-11-19T08:33:47;2.40;;;2.20;;
4420;SDS011;11824;51.178;13.546;2023-11-19T08:36:16;1.00;;;0.90;;
4420;SDS011;11824;51.178;13.546;2023-11-19T08:38:46;2.50;;;2.30;;
4420;SDS011;11824;51.178;13.546;2023-11-19T08:41:15;2.83;;;2.60;;
4420;SDS011;11824;51.178;13.546;2023-11-19T08:43:45;1.77;;;1.67;;
4420;SDS011;11824;51.178;13.546;2023-11-19T08:46:14;2.67;;;0.90;;
4420;SDS011;11824;51.178;13.546;2023-11-19T08:48:43;1.33;;;1.00;;
4420;SDS011;11824;51.178;13.546;2023-11-19T08:51:12;1.83;;;1.27;;
4420;SDS011;11824;51.178;13.546;2023-11-19T08:53:41;2.50;;;0.90;;
4420;SDS011;11824;51.178;13.546;2023-11-19T08:56:11;2.20;;;1.30;;
4420;SDS011;11824;51.178;13.546;2023-11-19T08:58:40;2.20;;;1.60;;
4420;SDS011;11824;51.178;13.546;2023-11-19T09:01:09;2.73;;;1.50;;
4420;SDS011;11824;51.178;13.546;2023-11-19T09:03:38;2.00;;;1.70;;
4420;SDS011;11824;51.178;13.546;2023-11-19T09:06:07;5.20;;;3.70;;
4420;SDS011;11824;51.178;13.546;2023-11-19T09:08:36;5.57;;;4.70;;
4420;SDS011;11824;51.178;13.546;2023-11-19T09:11:08;9.20;;;6.20;;
4420;SDS011;11824;51.178;13.546;2023-11-19T09:13:39;3.63;;;2.20;;
4420;SDS011;11824;51.178;13.546;2023-11-19T09:16:08;4.50;;;2.60;;
4420;SDS011;11824;51.178;13.546;2023-11-19T09:18:38;10.50;;;3.00;;
4420;SDS011;11824;51.178;13.546;2023-11-19T09:21:08;4.20;;;2.00;;
4420;SDS011;11824;51.178;13.546;2023-11-19T09:23:38;6.10;;;3.17;;
4420;SDS011;11824;51.178;13.546;2023-11-19T09:26:08;6.20;;;3.80;;
4420;SDS011;11824;51.178;13.546;2023-11-19T09:28:37;5.10;;;3.13;;
4420;SDS011;11824;51.178;13.546;2023-11-19T09:31:14;4.47;;;2.43;;
4420;SDS011;11824;51.178;13.546;2023-11-19T09:33:43;2.67;;;1.70;;
4420;SDS011;11824;51.178;13.546;2023-11-19T09:36:12;8.33;;;2.03;;
4420;SDS011;11824;51.178;13.546;2023-11-19T09:38:43;1.00;;;1.00;;
4420;SDS011;11824;51.178;13.546;2023-11-19T09:41:12;2.23;;;1.10;;
4420;SDS011;11824;51.178;13.546;2023-11-19T09:43:42;4.23;;;1.37;;
4420;SDS011;11824;51.178;13.546;2023-11-19T09:46:12;6.53;;;2.80;;
4420;SDS011;11824;51.178;13.546;2023-11-19T09:48:47;2.00;;;1.53;;
4420;SDS011;11824;51.178;13.546;2023-11-19T09:51:19;4.30;;;3.00;;
4420;SDS011;11824;51.178;13.546;2023-11-19T09:53:48;2.30;;;1.90;;
4420;SDS011;11824;51.178;13.546;2023-11-19T09:56:17;8.27;;;2.97;;
4420;SDS011;11824;51.178;13.546;2023-11-19T09:58:48;2.20;;;1.90;;
4420;SDS011;11824;51.178;13.546;2023-11-19T10:01:17;3.50;;;1.23;;
4420;SDS011;11824;51.178;13.546;2023-11-19T10:03:54;3.00;;;2.27;;
4420;SDS011;11824;51.178;13.546;2023-11-19T10:06:24;7.40;;;1.60;;
4420;SDS011;11824;51.178;13.546;2023-11-19T10:08:54;3.07;;;1.83;;
4420;SDS011;11824;51.178;13.546;2023-11-19T10:11:23;4.50;;;1.57;;
4420;SDS011;11824;51.178;13.546;2023-11-19T10:13:53;7.23;;;2.00;;
4420;SDS011;11824;51.178;13.546;2023-11-19T10:16:27;3.57;;;2.33;;
4420;SDS011;11824;51.178;13.546;2023-11-19T10:18:58;4.03;;;1.77;;
4420;SDS011;11824;51.178;13.546;2023-11-19T10:21:26;1.80;;;1.47;;
4420;SDS011;11824;51.178;13.546;2023-11-19T10:23:58;4.63;;;1.30;;
4420;SDS011;11824;51.178;13.546;2023-11-19T10:26:27;5.40;;;2.37;;
4420;SDS011;11824;51.178;13.546;2023-11-19T10:28:57;1.33;;;1.20;;
4420;SDS011;11824;51.178;13.546;2023-11-19T10:31:27;5.40;;;1.20;;
4420;SDS011;11824;51.178;13.546;2023-11-19T10:33:56;9.07;;;1.47;;
4420;SDS011;11824;51.178;13.546;2023-11-19T10:36:37;2.90;;;2.50;;
4420;SDS011;11824;51.178;13.546;2023-11-19T10:39:07;1.83;;;1.30;;
4420;SDS011;11824;51.178;13.546;2023-11-19T10:41:36;2.63;;;1.20;;
4420;SDS011;11824;51.178;13.546;2023-11-19T10:44:06;9.37;;;3.77;;
4420;SDS011;11824;51.178;13.546;2023-11-19T10:46:39;5.77;;;1.90;;
4420;SDS011;11824;51.178;13.546;2023-11-19T10:49:10;6.07;;;1.40;;
4420;SDS011;11824;51.178;13.546;2023-11-19T10:51:39;1.97;;;1.33;;
4420;SDS011;11824;51.178;13.546;2023-11-19T10:54:13;11.90;;;3.97;;
4420;SDS011;11824;51.178;13.546;2023-11-19T10:56:47;9.63;;;3.03;;
4420;SDS011;11824;51.178;13.546;2023-11-19T10:59:23;3.30;;;2.17;;
4420;SDS011;11824;51.178;13.546;2023-11-19T11:02:00;2.00;;;1.37;;
4420;SDS011;11824;51.178;13.546;2023-11-19T11:04:35;5.93;;;1.33;;
4420;SDS011;11824;51.178;13.546;2023-11-19T11:07:08;2.97;;;1.47;;
4420;SDS011;11824;51.178;13.546;2023-11-19T11:09:37;3.17;;;1.43;;
4420;SDS011;11824;51.178;13.546;2023-11-19T11:12:07;2.80;;;1.47;;
4420;SDS011;11824;51.178;13.546;2023-11-19T11:14:40;2.80;;;1.20;;
4420;SDS011;11824;51.178;13.546;2023-11-19T11:17:11;7.10;;;3.20;;
4420;SDS011;11824;51.178;13.546;2023-11-19T11:19:44;2.93;;;2.60;;
4420;SDS011;11824;51.178;13.546;2023-11-19T11:22:13;2.40;;;1.60;;
4420;SDS011;11824;51.178;13.546;2023-11-19T11:25:07;1.70;;;1.60;;
4420;SDS011;11824;51.178;13.546;2023-11-19T11:28:00;2.97;;;2.30;;
4420;SDS011;11824;51.178;13.546;2023-11-19T11:30:43;2.20;;;2.00;;
4420;SDS011;11824;51.178;13.546;2023-11-19T11:33:26;1.03;;;1.03;;
4420;SDS011;11824;51.178;13.546;2023-11-19T11:36:11;1.30;;;1.20;;
4420;SDS011;11824;51.178;13.546;2023-11-19T11:38:47;2.57;;;1.60;;
4420;SDS011;11824;51.178;13.546;2023-11-19T11:41:20;3.90;;;1.37;;
4420;SDS011;11824;51.178;13.546;2023-11-19T11:43:55;4.07;;;1.57;;
4420;SDS011;11824;51.178;13.546;2023-11-19T11:49:28;2.20;;;1.10;;
4420;SDS011;11824;51.178;13.546;2023-11-19T11:51:58;5.17;;;1.97;;
4420;SDS011;11824;51.178;13.546;2023-11-19T11:54:30;2.90;;;1.47;;
4420;SDS011;11824;51.178;13.546;2023-11-19T11:59:47;4.70;;;2.40;;
4420;SDS011;11824;51.178;13.546;2023-11-19T12:02:18;3.10;;;2.03;;
4420;SDS011;11824;51.178;13.546;2023-11-19T12:04:49;2.67;;;1.50;;
4420;SDS011;11824;51.178;13.546;2023-11-19T12:07:20;4.50;;;1.20;;
4420;SDS011;11824;51.178;13.546;2023-11-19T12:09:51;3.67;;;1.53;;
4420;SDS011;11824;51.178;13.546;2023-11-19T12:12:22;3.40;;;1.30;;
4420;SDS011;11824;51.178;13.546;2023-11-19T12:15:01;4.10;;;1.50;;
4420;SDS011;11824;51.178;13.546;2023-11-19T12:17:46;4.70;;;1.60;;
4420;SDS011;11824;51.178;13.546;2023-11-19T12:20:19;4.40;;;1.77;;
4420;SDS011;11824;51.178;13.546;2023-11-19T12:22:52;3.53;;;1.80;;
4420;SDS011;11824;51.178;13.546;2023-11-19T12:25:21;26.80;;;19.67;;
4420;SDS011;11824;51.178;13.546;2023-11-19T12:27:50;36.93;;;23.57;;
4420;SDS011;11824;51.178;13.546;2023-11-19T12:30:21;13.30;;;8.30;;
4420;SDS011;11824;51.178;13.546;2023-11-19T12:32:53;38.77;;;13.87;;
4420;SDS011;11824;51.178;13.546;2023-11-19T12:35:22;21.97;;;12.27;;
4420;SDS011;11824;51.178;13.546;2023-11-19T12:37:52;27.43;;;18.37;;
4420;SDS011;11824;51.178;13.546;2023-11-19T12:40:21;19.83;;;9.83;;
4420;SDS011;11824;51.178;13.546;2023-11-19T12:42:51;10.53;;;7.23;;
4420;SDS011;11824;51.178;13.546;2023-11-19T12:45:21;13.90;;;5.17;;
4420;SDS011;11824;51.178;13.546;2023-11-19T12:48:05;12.77;;;7.30;;
4420;SDS011;11824;51.178;13.546;2023-11-19T12:50:51;13.20;;;3.30;;
4420;SDS011;11824;51.178;13.546;2023-11-19T12:53:20;4.77;;;1.53;;
4420;SDS011;11824;51.178;13.546;2023-11-19T12:55:50;11.97;;;3.33;;
4420;SDS011;11824;51.178;13.546;2023-11-19T12:58:29;6.50;;;2.20;;
4420;SDS011;11824;51.178;13.546;2023-11-19T13:01:01;15.40;;;3.10;;
4420;SDS011;11824;51.178;13.546;2023-11-19T13:03:34;5.30;;;2.00;;
4420;SDS011;11824;51.178;13.546;2023-11-19T13:06:06;12.33;;;2.63;;
4420;SDS011;11824;51.178;13.546;2023-11-19T13:08:37;11.43;;;2.60;;
4420;SDS011;11824;51.178;13.546;2023-11-19T13:11:07;11.07;;;2.50;;
4420;SDS011;11824;51.178;13.546;2023-11-19T13:13:55;8.13;;;2.73;;
4420;SDS011;11824;51.178;13.546;2023-11-19T13:16:26;8.00;;;3.50;;
4420;SDS011;11824;51.178;13.546;2023-11-19T13:18:57;15.90;;;3.23;;
4420;SDS011;11824;51.178;13.546;2023-11-19T13:21:27;10.03;;;2.93;;
4420;SDS011;11824;51.178;13.546;2023-11-19T13:23:56;16.30;;;3.57;;
4420;SDS011;11824;51.178;13.546;2023-11-19T13:26:25;16.93;;;4.33;;
4420;SDS011;11824;51.178;13.546;2023-11-19T13:28:54;16.43;;;2.40;;
4420;SDS011;11824;51.178;13.546;2023-11-19T13:31:23;15.23;;;3.00;;
4420;SDS011;11824;51.178;13.546;2023-11-19T13:33:52;12.60;;;2.47;;
4420;SDS011;11824;51.178;13.546;2023-11-19T13:36:22;14.33;;;2.67;;
4420;SDS011;11824;51.178;13.546;2023-11-19T13:38:52;14.70;;;3.03;;
4420;SDS011;11824;51.178;13.546;2023-11-19T13:41:26;9.00;;;2.47;;
4420;SDS011;11824;51.178;13.546;2023-11-19T13:43:55;18.63;;;3.80;;
4420;SDS011;11824;51.178;13.546;2023-11-19T13:46:24;11.80;;;3.43;;
4420;SDS011;11824;51.178;13.546;2023-11-19T13:48:53;21.67;;;6.47;;
4420;SDS011;11824;51.178;13.546;2023-11-19T13:51:23;11.90;;;4.60;;
4420;SDS011;11824;51.178;13.546;2023-11-19T13:53:52;17.20;;;4.63;;
4420;SDS011;11824;51.178;13.546;2023-11-19T13:56:20;33.27;;;4.77;;
4420;SDS011;11824;51.178;13.546;2023-11-19T13:58:49;22.70;;;4.83;;
4420;SDS011;11824;51.178;13.546;2023-11-19T14:01:19;20.57;;;3.60;;
4420;SDS011;11824;51.178;13.546;2023-11-19T14:03:51;19.43;;;3.87;;
4420;SDS011;11824;51.178;13.546;2023-11-19T14:06:20;17.03;;;5.07;;
4420;SDS011;11824;51.178;13.546;2023-11-19T14:08:51;16.80;;;3.20;;
4420;SDS011;11824;51.178;13.546;2023-11-19T14:11:19;12.80;;;3.10;;
4420;SDS011;11824;51.178;13.546;2023-11-19T14:13:48;12.03;;;3.17;;
4420;SDS011;11824;51.178;13.546;2023-11-19T14:16:18;21.23;;;4.37;;
4420;SDS011;11824;51.178;13.546;2023-11-19T14:18:47;15.23;;;2.80;;
4420;SDS011;11824;51.178;13.546;2023-11-19T14:21:16;8.30;;;2.63;;
4420;SDS011;11824;51.178;13.546;2023-11-19T14:23:46;7.20;;;2.80;;
4420;SDS011;11824;51.178;13.546;2023-11-19T14:26:15;12.63;;;2.50;;
4420;SDS011;11824;51.178;13.546;2023-11-19T14:28:44;12.23;;;3.23;;
4420;SDS011;11824;51.178;13.546;2023-11-19T14:31:15;13.43;;;3.30;;
4420;SDS011;11824;51.178;13.546;2023-11-19T14:33:44;10.53;;;3.10;;
4420;SDS011;11824;51.178;13.546;2023-11-19T14:36:13;14.03;;;3.00;;
4420;SDS011;11824;51.178;13.546;2023-11-19T14:38:42;19.00;;;3.37;;
4420;SDS011;11824;51.178;13.546;2023-11-19T14:41:12;8.90;;;3.80;;
4420;SDS011;11824;51.178;13.546;2023-11-19T14:43:41;15.00;;;3.33;;
4420;SDS011;11824;51.178;13.546;2023-11-19T14:46:10;10.50;;;4.00;;
4420;SDS011;11824;51.178;13.546;2023-11-19T14:48:39;14.77;;;4.47;;
4420;SDS011;11824;51.178;13.546;2023-11-19T14:51:07;13.23;;;5.33;;
4420;SDS011;11824;51.178;13.546;2023-11-19T14:53:36;17.03;;;5.17;;
4420;SDS011;11824;51.178;13.546;2023-11-19T14:56:05;11.37;;;4.07;;
4420;SDS011;11824;51.178;13.546;2023-11-19T14:58:41;15.40;;;3.70;;
4420;SDS011;11824;51.178;13.546;2023-11-19T15:01:11;6.97;;;2.10;;
4420;SDS011;11824;51.178;13.546;2023-11-19T15:03:40;16.30;;;3.47;;
4420;SDS011;11824;51.178;13.546;2023-11-19T15:06:12;11.57;;;3.20;;
4420;SDS011;11824;51.178;13.546;2023-11-19T15:08:41;20.47;;;4.47;;
4420;SDS011;11824;51.178;13.546;2023-11-19T15:11:11;17.20;;;3.20;;